createdAt,value
2022-11-04T00:00:51.667Z,37.10
2022-11-04T00:04:08.491Z,34.35
2022-11-04T00:07:38.724Z,32.30
2022-11-04T00:11:08.835Z,34.70
2022-11-04T00:14:25.594Z,31.38
2022-11-04T00:17:41.652Z,29.63
2022-11-04T00:21:11.987Z,33.45
2022-11-04T00:24:41.915Z,30.58
2022-11-04T00:28:11.945Z,30.43
2022-11-04T00:31:44.972Z,32.60
2022-11-04T00:35:00.989Z,31.33
2022-11-04T00:38:17.048Z,30.58
2022-11-04T00:41:33.160Z,32.45
2022-11-04T00:44:49.323Z,32.70
2022-11-04T00:48:07.153Z,29.65
2022-11-04T00:51:23.606Z,32.38
2022-11-04T00:54:41.897Z,32.90
2022-11-04T00:57:57.949Z,32.65
2022-11-04T01:01:20.713Z,31.63
2022-11-04T01:04:37.735Z,33.60
2022-11-04T01:07:53.888Z,32.25
2022-11-04T01:11:14.141Z,28.40
2022-11-04T01:14:31.461Z,31.00
2022-11-04T01:17:47.579Z,26.40
2022-11-04T01:21:07.505Z,29.90
2022-11-04T01:24:23.623Z,27.23
2022-11-04T01:27:40.189Z,29.40
2022-11-04T01:30:56.374Z,27.58
2022-11-04T01:34:12.426Z,29.45
2022-11-04T01:37:28.451Z,26.68
2022-11-04T01:40:48.573Z,28.80
2022-11-04T01:44:07.227Z,24.53
2022-11-04T01:47:28.039Z,23.25
2022-11-04T01:50:45.127Z,26.98
2022-11-04T01:54:03.870Z,25.93
2022-11-04T01:57:24.551Z,24.33
2022-11-04T02:00:41.464Z,24.65
2022-11-04T02:04:03.667Z,24.10
2022-11-04T02:07:20.259Z,26.88
2022-11-04T02:10:38.529Z,25.68
2022-11-04T02:13:54.657Z,22.73
2022-11-04T02:17:19.798Z,22.75
2022-11-04T02:21:04.568Z,23.90
2022-11-04T02:24:49.426Z,25.28
2022-11-04T02:28:29.166Z,23.73
2022-11-04T02:31:50.173Z,24.15
2022-11-04T02:35:12.719Z,26.70
2022-11-04T02:38:41.522Z,22.30
2022-11-04T02:42:03.635Z,22.80
2022-11-04T02:45:27.075Z,25.30
2022-11-04T02:48:49.327Z,24.68
2022-11-04T02:52:10.335Z,23.70
2022-11-04T02:55:31.960Z,28.25
2022-11-04T02:58:52.052Z,25.98
2022-11-04T03:02:11.384Z,21.85
2022-11-04T03:08:47.230Z,27.00
2022-11-04T03:15:25.465Z,29.63
2022-11-04T03:18:47.817Z,25.33
2022-11-04T03:22:08.572Z,23.43
2022-11-04T03:25:25.119Z,22.30
2022-11-04T03:28:47.485Z,25.80
2022-11-04T03:32:12.691Z,29.23
2022-11-04T03:35:29.695Z,24.48
2022-11-04T03:38:46.390Z,22.88
2022-11-04T03:42:08.220Z,23.63
2022-11-04T03:45:24.639Z,22.78
2022-11-04T03:48:42.724Z,21.10
2022-11-04T03:51:59.362Z,22.65
2022-11-04T03:55:17.826Z,24.75
2022-11-04T03:58:42.626Z,22.53
2022-11-04T04:02:03.066Z,22.38
2022-11-04T04:05:25.140Z,22.73
2022-11-04T04:08:46.619Z,22.45
2022-11-04T04:12:07.973Z,18.78
2022-11-04T04:15:28.914Z,20.90
2022-11-04T04:18:54.076Z,21.75
2022-11-04T04:22:13.080Z,20.88
2022-11-04T04:25:46.118Z,23.38
2022-11-04T04:29:04.768Z,20.00
2022-11-04T04:32:22.226Z,21.20
2022-11-04T04:35:47.843Z,22.20
2022-11-04T04:39:18.456Z,20.85
2022-11-04T04:42:52.140Z,22.48
2022-11-04T04:46:08.755Z,18.80
2022-11-04T04:49:25.300Z,20.48
2022-11-04T04:52:45.267Z,20.43
2022-11-04T04:56:01.379Z,20.70
2022-11-04T04:59:17.132Z,21.20
2022-11-04T05:02:33.568Z,22.50
2022-11-04T05:05:53.746Z,21.77
2022-11-04T05:09:09.759Z,21.55
2022-11-04T05:12:25.920Z,21.18
2022-11-04T05:15:42.521Z,22.60
2022-11-04T05:18:59.903Z,19.00
2022-11-04T05:22:16.016Z,20.58
2022-11-04T05:25:32.038Z,19.50
2022-11-04T05:28:48.179Z,20.08
2022-11-04T05:32:04.598Z,23.05
2022-11-04T05:35:21.034Z,23.50
2022-11-04T05:38:37.141Z,23.93
2022-11-04T05:41:53.416Z,20.70
2022-11-04T05:45:09.991Z,20.63
2022-11-04T05:48:27.791Z,18.23
2022-11-04T05:51:45.321Z,20.23
2022-11-04T05:55:01.475Z,19.70
2022-11-04T05:58:17.614Z,19.63
2022-11-04T06:01:47.234Z,20.25
2022-11-04T06:05:03.918Z,18.35
2022-11-04T06:08:20.113Z,17.93
2022-11-04T06:11:39.152Z,19.33
2022-11-04T06:14:55.359Z,17.90
2022-11-04T06:18:11.739Z,20.25
2022-11-04T06:21:34.906Z,26.25
2022-11-04T06:24:51.585Z,20.18
2022-11-04T06:28:07.976Z,19.18
2022-11-04T06:31:25.757Z,19.00
2022-11-04T06:34:41.836Z,16.65
2022-11-04T06:38:00.376Z,18.05
2022-11-04T06:41:20.438Z,16.73
2022-11-04T06:44:37.860Z,18.25
2022-11-04T06:47:54.062Z,23.40
2022-11-04T06:51:10.978Z,19.78
2022-11-04T06:54:27.849Z,16.43
2022-11-04T06:57:44.060Z,17.60
2022-11-04T07:01:08.761Z,18.68
2022-11-04T07:04:21.362Z,21.43
2022-11-04T07:07:38.743Z,21.38
2022-11-04T07:10:54.941Z,20.75
2022-11-04T07:14:11.405Z,20.52
2022-11-04T07:17:27.746Z,21.80
2022-11-04T07:20:43.856Z,19.73
2022-11-04T07:24:00.143Z,18.15
2022-11-04T07:27:17.020Z,17.05
2022-11-04T07:30:33.459Z,17.63
2022-11-04T07:33:52.573Z,19.13
2022-11-04T07:37:10.469Z,19.60
2022-11-04T07:40:26.989Z,18.33
2022-11-04T07:43:43.117Z,19.68
2022-11-04T07:47:00.369Z,18.45
2022-11-04T07:50:17.629Z,21.23
2022-11-04T07:53:34.157Z,17.85
2022-11-04T07:56:50.306Z,21.28
2022-11-04T08:00:12.600Z,16.30
2022-11-04T08:03:28.836Z,19.88
2022-11-04T08:06:45.828Z,19.75
2022-11-04T08:10:02.060Z,18.25
2022-11-04T08:13:18.158Z,16.15
2022-11-04T08:16:36.103Z,18.83
2022-11-04T08:19:52.533Z,17.68
2022-11-04T08:23:13.064Z,17.50
2022-11-04T08:26:36.950Z,20.48
2022-11-04T08:29:57.648Z,17.40
2022-11-04T08:33:19.788Z,47.20
2022-11-04T08:36:41.666Z,18.30
2022-11-04T08:39:58.281Z,16.25
2022-11-04T08:43:14.498Z,15.03
2022-11-04T08:46:30.822Z,16.08
2022-11-04T08:49:49.989Z,17.88
2022-11-04T08:53:07.758Z,10.70
2022-11-04T08:56:28.695Z,13.80
2022-11-04T08:59:45.309Z,13.43
2022-11-04T09:03:01.454Z,13.78
2022-11-04T09:06:21.178Z,11.50
2022-11-04T09:09:37.747Z,11.23
2022-11-04T09:12:54.344Z,16.38
2022-11-04T09:16:11.020Z,13.23
2022-11-04T09:19:27.336Z,10.28
2022-11-04T09:22:45.927Z,13.80
2022-11-04T09:26:01.655Z,10.75
2022-11-04T09:29:18.162Z,12.45
2022-11-04T09:32:34.342Z,10.63
2022-11-04T09:35:50.759Z,9.03
2022-11-04T09:39:07.078Z,58.25
2022-11-04T09:42:49.550Z,11.08
2022-11-04T09:46:10.180Z,10.73
2022-11-04T09:49:29.104Z,13.40
2022-11-04T09:52:52.407Z,11.53
2022-11-04T09:56:12.751Z,10.98
2022-11-04T09:59:35.358Z,7.70
2022-11-04T10:03:06.911Z,9.68
2022-11-04T10:06:39.051Z,10.10
2022-11-04T10:10:07.406Z,10.63
2022-11-04T10:13:33.169Z,11.75
2022-11-04T10:17:06.272Z,9.28
2022-11-04T10:20:43.785Z,10.60
2022-11-04T10:24:09.754Z,11.55
2022-11-04T10:27:30.929Z,10.08
2022-11-04T10:30:48.941Z,13.50
2022-11-04T10:34:09.700Z,14.40
2022-11-04T10:37:26.130Z,67.23
2022-11-04T10:40:47.073Z,12.50
2022-11-04T10:44:09.367Z,11.48
2022-11-04T10:47:36.686Z,12.50
2022-11-04T10:50:59.172Z,11.85
2022-11-04T10:54:20.055Z,12.78
2022-11-04T10:57:36.355Z,15.55
2022-11-04T11:00:52.811Z,12.13
2022-11-04T11:04:13.770Z,11.75
2022-11-04T11:07:31.796Z,13.90
2022-11-04T11:10:51.404Z,11.80
2022-11-04T11:14:09.325Z,10.95
2022-11-04T11:17:32.146Z,10.85
2022-11-04T11:20:52.205Z,10.05
2022-11-04T11:24:17.923Z,8.35
2022-11-04T11:27:35.906Z,9.73
2022-11-04T11:31:06.445Z,11.80
2022-11-04T11:34:31.565Z,12.40
2022-11-04T11:37:51.185Z,10.43
2022-11-04T11:41:25.021Z,12.48
2022-11-04T11:44:43.514Z,11.40
2022-11-04T11:48:01.931Z,10.68
2022-11-04T11:51:30.679Z,10.90
2022-11-04T11:54:47.670Z,11.83
2022-11-04T12:01:32.424Z,10.95
2022-11-04T12:11:39.199Z,14.80
2022-11-04T12:15:18.594Z,13.85
2022-11-04T12:18:58.248Z,9.33
2022-11-04T12:22:22.511Z,11.65
2022-11-04T12:25:46.674Z,9.45
2022-11-04T12:29:30.606Z,12.33
2022-11-04T12:33:01.213Z,10.43
2022-11-04T12:36:30.165Z,9.25
2022-11-04T12:40:16.160Z,10.58
2022-11-04T12:43:37.469Z,12.10
2022-11-04T12:46:58.798Z,10.80
2022-11-04T12:50:29.715Z,8.45
2022-11-04T12:54:05.785Z,8.78
2022-11-04T12:57:32.962Z,11.48
2022-11-04T13:00:59.333Z,11.73
2022-11-04T13:04:18.751Z,11.38
2022-11-04T13:07:41.724Z,7.55
2022-11-04T13:11:03.179Z,11.05
2022-11-04T13:14:28.974Z,9.85
2022-11-04T13:17:48.216Z,9.68
2022-11-04T13:21:09.335Z,11.60
2022-11-04T13:24:32.473Z,9.25
2022-11-04T13:27:52.950Z,12.33
2022-11-04T13:31:17.926Z,10.28
2022-11-04T13:34:42.350Z,11.93
2022-11-04T13:38:09.626Z,10.35
2022-11-04T13:41:49.408Z,21.10
2022-11-04T13:45:11.535Z,10.60
2022-11-04T13:48:35.244Z,10.28
2022-11-04T13:51:56.100Z,10.58
2022-11-04T13:55:24.331Z,11.43
2022-11-04T13:58:46.906Z,11.43
2022-11-04T14:02:33.326Z,9.85
2022-11-04T14:06:16.455Z,9.88
2022-11-04T14:10:04.881Z,16.68
2022-11-04T14:14:09.216Z,14.07
2022-11-04T14:18:10.462Z,12.60
2022-11-04T14:21:26.179Z,10.28
2022-11-04T14:24:42.831Z,14.10
2022-11-04T14:28:02.390Z,17.38
2022-11-04T14:31:20.818Z,11.70
2022-11-04T14:34:42.842Z,15.07
2022-11-04T14:38:04.523Z,13.15
2022-11-04T14:41:38.881Z,13.20
2022-11-04T14:44:57.379Z,13.38
2022-11-04T14:49:16.013Z,21.18
2022-11-04T14:52:37.621Z,17.23
2022-11-04T14:55:53.839Z,15.75
2022-11-04T14:59:12.351Z,14.45
2022-11-04T15:02:36.331Z,14.90
2022-11-04T15:06:01.252Z,13.50
2022-11-04T15:09:32.592Z,16.48
2022-11-04T15:12:56.521Z,12.53
2022-11-04T15:16:19.481Z,15.23
2022-11-04T15:19:39.891Z,17.73
2022-11-04T15:22:57.146Z,13.55
2022-11-04T15:26:23.801Z,16.18
2022-11-04T15:29:38.955Z,13.03
2022-11-04T15:33:10.583Z,18.18
2022-11-04T15:36:31.329Z,19.65
2022-11-04T15:39:51.192Z,21.15
2022-11-04T15:43:10.874Z,17.38
2022-11-04T15:46:30.338Z,20.05
2022-11-04T15:49:46.629Z,16.13
2022-11-04T15:53:07.012Z,16.35
2022-11-04T15:56:25.581Z,14.80
2022-11-04T15:59:45.284Z,14.15
2022-11-04T16:03:04.906Z,15.85
2022-11-04T16:06:21.747Z,19.55
2022-11-04T16:09:40.544Z,14.78
2022-11-04T16:12:58.908Z,19.60
2022-11-04T16:16:26.789Z,24.10
2022-11-04T16:19:44.490Z,16.40
2022-11-04T16:23:08.927Z,19.13
2022-11-04T16:26:30.770Z,16.60
2022-11-04T16:29:48.018Z,22.28
2022-11-04T16:33:15.316Z,27.15
2022-11-04T16:36:35.566Z,24.63
2022-11-04T16:39:50.787Z,28.27
2022-11-04T16:43:07.538Z,24.33
2022-11-04T16:46:24.569Z,21.13
2022-11-04T16:49:40.961Z,18.75
2022-11-04T16:52:57.289Z,32.70
2022-11-04T16:56:14.538Z,30.63
2022-11-04T16:59:30.611Z,25.78
2022-11-04T17:02:46.966Z,28.28
2022-11-04T17:06:04.976Z,25.98
2022-11-04T17:09:30.436Z,33.00
2022-11-04T17:12:49.335Z,33.35
2022-11-04T17:16:05.773Z,45.53
2022-11-04T17:19:30.499Z,41.33
2022-11-04T17:22:47.630Z,44.53
2022-11-04T17:26:04.024Z,51.30
2022-11-04T17:29:20.196Z,48.98
2022-11-04T17:32:36.330Z,36.75
2022-11-04T17:35:55.099Z,36.95
2022-11-04T17:39:11.479Z,42.15
2022-11-04T17:42:41.627Z,39.95
2022-11-04T17:45:59.769Z,39.05
2022-11-04T17:49:23.440Z,42.20
2022-11-04T17:52:41.038Z,44.15
2022-11-04T17:55:57.491Z,47.95
2022-11-04T17:59:15.956Z,49.03
2022-11-04T18:02:32.475Z,46.73
2022-11-04T18:05:49.166Z,47.38
2022-11-04T18:09:06.946Z,45.65
2022-11-04T18:12:37.148Z,47.20
2022-11-04T18:15:53.797Z,44.15
2022-11-04T18:19:10.369Z,46.85
2022-11-04T18:22:26.895Z,45.63
2022-11-04T18:25:46.720Z,45.25
2022-11-04T18:29:02.418Z,47.50
2022-11-04T18:32:19.303Z,47.58
2022-11-04T18:35:35.928Z,42.90
2022-11-04T18:38:53.805Z,41.33
2022-11-04T18:42:10.601Z,53.80
2022-11-04T18:45:27.065Z,46.05
2022-11-04T18:48:45.653Z,49.78
2022-11-04T18:52:02.007Z,44.55
2022-11-04T18:55:21.199Z,41.80
2022-11-04T18:58:45.790Z,38.85
2022-11-04T19:02:02.315Z,37.48
2022-11-04T19:05:19.866Z,38.95
2022-11-04T19:08:39.923Z,37.47
2022-11-04T19:11:59.499Z,33.15
2022-11-04T19:15:17.933Z,33.83
2022-11-04T19:18:34.238Z,33.78
2022-11-04T19:21:51.392Z,37.98
2022-11-04T19:25:07.628Z,38.70
2022-11-04T19:28:40.361Z,38.73
2022-11-04T19:31:44.029Z,36.90
2022-11-04T19:35:01.595Z,41.05
2022-11-04T19:38:19.069Z,39.65
2022-11-04T19:41:49.630Z,39.48
2022-11-04T19:45:06.394Z,43.08
2022-11-04T19:48:24.382Z,45.50
2022-11-04T19:51:40.883Z,40.60
2022-11-04T19:54:57.159Z,36.05
2022-11-04T19:58:14.206Z,47.43
2022-11-04T20:01:32.158Z,43.18
2022-11-04T20:08:06.171Z,39.55
2022-11-04T20:11:24.420Z,41.27
2022-11-04T20:14:40.811Z,45.90
2022-11-04T20:17:57.342Z,40.28
2022-11-04T20:21:15.154Z,38.93
2022-11-04T20:24:31.477Z,38.35
2022-11-04T20:27:49.174Z,46.43
2022-11-04T20:31:09.195Z,41.60
2022-11-04T20:34:30.112Z,43.00
2022-11-04T20:37:44.567Z,46.80
2022-11-04T20:41:01.068Z,44.48
2022-11-04T20:44:19.759Z,68.40
2022-11-04T20:47:37.784Z,51.00
2022-11-04T20:50:56.482Z,45.45
2022-11-04T20:54:15.465Z,47.53
2022-11-04T20:57:31.697Z,44.40
2022-11-04T21:00:48.095Z,46.20
2022-11-04T21:04:07.083Z,46.08
2022-11-04T21:07:23.358Z,40.50
2022-11-04T21:10:39.573Z,44.23
2022-11-04T21:13:55.840Z,44.88
2022-11-04T21:17:13.511Z,41.60
2022-11-04T21:20:29.852Z,41.30
2022-11-04T21:23:46.802Z,40.28
2022-11-04T21:27:04.160Z,39.50
2022-11-04T21:30:21.976Z,40.70
2022-11-04T21:33:38.954Z,41.73
2022-11-04T21:36:57.682Z,42.28
2022-11-04T21:40:17.015Z,44.05
2022-11-04T21:43:33.409Z,43.23
2022-11-04T21:46:50.088Z,43.15
2022-11-04T21:50:06.600Z,42.70
2022-11-04T21:53:23.035Z,38.78
2022-11-04T21:56:40.406Z,39.65
2022-11-04T21:59:57.067Z,42.95
2022-11-04T22:03:14.891Z,39.48
2022-11-04T22:06:34.797Z,42.48
2022-11-04T22:09:51.028Z,40.25
2022-11-04T22:13:07.647Z,40.08
2022-11-04T22:16:28.387Z,38.93
2022-11-04T22:19:44.723Z,39.48
2022-11-04T22:23:01.184Z,41.63
2022-11-04T22:26:22.035Z,37.90
2022-11-04T22:29:38.403Z,43.30
2022-11-04T22:32:54.704Z,42.13
2022-11-04T22:36:11.996Z,39.85
2022-11-04T22:39:28.804Z,39.70
2022-11-04T22:42:45.294Z,43.73
2022-11-04T22:46:02.797Z,41.90
2022-11-04T22:49:19.801Z,37.78
2022-11-04T22:52:36.431Z,38.60
2022-11-04T22:55:52.573Z,39.90
2022-11-04T22:59:08.932Z,37.53
2022-11-04T23:02:25.186Z,40.50
2022-11-04T23:05:42.888Z,42.88
2022-11-04T23:09:00.805Z,43.95
2022-11-04T23:12:33.082Z,39.67
2022-11-04T23:16:04.308Z,42.43
2022-11-04T23:19:20.776Z,44.10
2022-11-04T23:22:50.759Z,41.38
2022-11-04T23:26:07.435Z,39.80
2022-11-04T23:29:39.170Z,43.75
2022-11-04T23:32:55.835Z,49.45
2022-11-04T23:36:26.716Z,43.60
2022-11-04T23:39:42.987Z,45.00
2022-11-04T23:43:02.000Z,39.43
2022-11-04T23:46:36.568Z,40.33
2022-11-04T23:50:05.226Z,41.63
2022-11-04T23:53:49.884Z,40.05
2022-11-04T23:57:20.024Z,42.80
